Terminal Aerodrome Forecast
Issued by NWS

Home | Current Version | Previous Version | Text Only | Print | Product List | Glossary On
Versions: 1 2 3 4 5 6 7 8 9 10 11 12 13 14 15 16
832
FTUS43 KILX 261323 AAA
TAFDEC
TAF AMD
KDEC 261323Z 2613/2712 23007KT P6SM SCT006 SCT250
     FM261400 27005KT P6SM FEW050 SCT250
     FM270200 22004KT P6SM FEW250
     FM270900 VRB03KT 4SM BR FEW200=

USA.gov is the U.S. government's official web portal to all federal, state and local government web resources and services.